Willcox, AZ (85643)

9:33 AM MST on September 03, 2015 (GMT -0700)
14 miles North West of Willcox | | Change Station
CLOSE
Current Station
Personal Weather Station
Location: Willcox, AZ
Elevation: 4275 ft
Nearby Weather Stations

Elev 4275 ft 32.38 °N, 109.95 °W | Updated 2 seconds ago

Partly Cloudy
Partly Cloudy
68.2 °F
Feels Like 68.2 °F
N
8.9
Wind Variable Wind from SSE
Gusts 13.0 mph

Today
High -- | Low -- °F
--% Chance of Precip.
Yesterday
High -- | Low -- °F
Precip. -- in
5:55 AM 6:41 PM
Waning Gibbous, 69% visible
Pressure 29.91 in
Visibility 10.0 miles
Clouds Clear
Dew Point 58 °F
Humidity 71%
Rainfall 0.00 in
Snow Depth Not available.
UV 4 out of 12
Pollen .70 out of 12
Air Quality Not available.
Flu Activity Not available.
METAR KSAD 031551Z AUTO 03003KT 10SM CLR 25/14 A3005 RMK AO2 SLP128 T02500144
Pressure 29.91 in
Visibility 10.0 miles
Clouds Clear
Dew Point 58 °F
Humidity 71%
Rainfall 0.00 in
Snow Depth Not available.
UV 4 out of 12
Pollen .70 out of 12
Air Quality Not available.
Flu Activity Not available.
METAR KSAD 031551Z AUTO 03003KT 10SM CLR 25/14 A3005 RMK AO2 SLP128 T02500144
Nowcast | as of 8:57 am MST on September 3, 2015

Scattered light showers continue across portions of Southeast Arizona...mainly along the I-10 corridor from Tucson eastward through Benson to Willcox. A rumble or two of thunder will also be possible. Movement of the showers was to the northeast at around 10 mph. These showers are expected to produce only trace amounts to a couple of hundredths of an inch through 11 am MST.

×

10-Day Weather Forecast

×

Almanac

Astronomy

Sep. 03, 2015 Rise Set
Actual Time
Civil Twilight
Nautical Twilight
Astronomical Twilight
Moon
Length of Visible Light
Length of Day
Tomorrow will be .
, % of the Moon is Illuminated

Today's Extremes

State Highs State Lows

Community

WunderPhotos

Upload Photos

1,851,988 photos uploaded!

WunderBlogs® & News

Nearby

Air Quality

  Air Quality AQ Index Pollutant
Not available.

Snow Depth

Station Depth Elevation

Earthquake Activity

City Distance Mag. Time & Date
Minimum magnitude displayed is 2.5.

Coastal Water Temperatures

Place Temperature

Stations

Nearby Weather Stations

Station Location Temp. Windchill Dew Point Humidity Wind Precip. Elev Updated Type